Terminal Aerodrome Forecast
Issued by NWS

Home | Current Version | Previous Version | Text Only | Print | Product List | Glossary On
Versions: 1 2 3 4 5 6 7 8 9 10 11 12 13 14
000
FTUS45 KCYS 081733
TAFAIA
TAF
KAIA 081733Z 0818/0918 28007KT P6SM SKC
     FM090000 16006KT P6SM SCT120 BKN200
     FM090600 15007KT P6SM BKN050 OVC100=

USA.gov is the U.S. government's official web portal to all federal, state and local government web resources and services.